Time;durP1;ratioP1;P1;durP2;ratioP2;P2;SDS_P1;SDS_P2;PMS_P1;PMS_P2;Temp;Humidity;BMP_temperature;BMP_pressure;BME280_temperature;BME280_humidity;BME280_pressure;Samples;Min_cycle;Max_cycle;Signal;HPM_P1;HPM_P2
2022/07/31 00:01:07;;;;;;;6.43;1.77;;;19.60;94.00;;;;;;4980141;28;20026;-58
2022/07/31 00:03:33;;;;;;;3.85;1.92;;;19.60;94.20;;;;;;4980748;28;20035;-56
2022/07/31 00:05:59;;;;;;;3.50;2.08;;;19.60;94.60;;;;;;4982845;28;20029;-57
2022/07/31 00:08:24;;;;;;;5.60;2.17;;;19.50;94.70;;;;;;4978810;28;20109;-58
2022/07/31 00:10:50;;;;;;;4.85;2.35;;;19.50;94.60;;;;;;4978535;28;20031;-55
2022/07/31 00:13:15;;;;;;;3.17;1.85;;;19.50;94.60;;;;;;4977868;28;20057;-56
2022/07/31 00:15:41;;;;;;;4.32;2.25;;;19.50;94.90;;;;;;4977219;28;20038;-58
2022/07/31 00:18:07;;;;;;;5.50;2.78;;;19.50;95.10;;;;;;4979908;28;20026;-56
2022/07/31 00:20:34;;;;;;;5.32;1.92;;;19.40;95.10;;;;;;4982371;28;20022;-57
2022/07/31 00:23:00;;;;;;;4.95;3.33;;;19.40;95.30;;;;;;4978707;28;20029;-56
2022/07/31 00:25:26;;;;;;;3.70;2.30;;;19.40;95.50;;;;;;4969998;28;20046;-56
2022/07/31 00:27:52;;;;;;;7.47;2.50;;;19.40;95.50;;;;;;4978966;28;20477;-56
2022/07/31 00:30:17;;;;;;;13.05;2.72;;;19.30;95.70;;;;;;4960254;28;20054;-52
2022/07/31 00:32:43;;;;;;;4.93;2.30;;;19.30;95.90;;;;;;4978537;28;20424;-54
2022/07/31 00:35:10;;;;;;;6.18;2.47;;;19.30;96.20;;;;;;4990019;28;20117;-53
2022/07/31 00:37:36;;;;;;;4.25;2.70;;;19.20;96.60;;;;;;4989604;28;20030;-56
2022/07/31 00:40:06;;;;;;;5.05;2.55;;;19.10;97.40;;;;;;4991652;28;20074;-53
2022/07/31 00:42:33;;;;;;;8.65;2.90;;;19.00;97.70;;;;;;4973628;28;20452;-58
2022/07/31 00:44:58;;;;;;;5.78;2.47;;;18.90;97.80;;;;;;4979699;28;20037;-50
2022/07/31 00:47:25;;;;;;;8.60;2.60;;;18.80;98.00;;;;;;4991205;28;20037;-55
2022/07/31 00:49:52;;;;;;;7.30;2.35;;;18.80;98.00;;;;;;4974339;28;20062;-57
2022/07/31 00:52:18;;;;;;;5.25;2.63;;;18.80;98.30;;;;;;4986613;28;20381;-56
2022/07/31 00:54:44;;;;;;;5.90;2.72;;;18.70;98.80;;;;;;4985075;28;20022;-53
2022/07/31 00:57:10;;;;;;;4.18;2.17;;;18.70;98.90;;;;;;4986384;28;20023;-57
2022/07/31 00:59:36;;;;;;;5.05;2.42;;;18.60;98.90;;;;;;4985590;28;20045;-56
2022/07/31 01:02:01;;;;;;;4.72;2.50;;;18.50;99.10;;;;;;4983760;28;20100;-58
2022/07/31 01:04:27;;;;;;;4.05;2.03;;;18.40;99.30;;;;;;4986407;28;20034;-57
2022/07/31 01:06:53;;;;;;;2.85;2.00;;;18.40;99.90;;;;;;4989412;28;20065;-57
2022/07/31 01:09:19;;;;;;;5.15;2.47;;;18.30;99.90;;;;;;4986191;28;20038;-56
2022/07/31 01:12:02;;;;;;;3.90;1.88;;;18.30;99.90;;;;;;4991135;28;20026;-59
2022/07/31 01:14:32;;;;;;;4.33;2.47;;;18.20;99.90;;;;;;4988594;28;20030;-55
2022/07/31 01:17:01;;;;;;;5.00;2.78;;;18.20;99.90;;;;;;4989461;28;20097;-57
2022/07/31 01:19:36;;;;;;;6.35;2.60;;;18.10;99.90;;;;;;4986518;28;20448;-54
2022/07/31 01:22:29;;;;;;;6.18;2.35;;;18.10;99.90;;;;;;4988696;28;20062;-56
2022/07/31 01:25:16;;;;;;;6.50;3.00;;;18.00;99.90;;;;;;4990785;28;20122;-57
2022/07/31 01:28:00;;;;;;;5.00;2.60;;;18.00;99.90;;;;;;4982904;28;20046;-57
2022/07/31 01:30:32;;;;;;;6.28;2.35;;;18.00;99.90;;;;;;4988479;28;20049;-56
2022/07/31 01:33:16;;;;;;;4.55;2.75;;;17.90;99.90;;;;;;4989167;28;20492;-57
2022/07/31 01:35:48;;;;;;;4.90;2.70;;;17.90;99.90;;;;;;4971801;28;20035;-56
2022/07/31 01:38:20;;;;;;;5.20;2.28;;;17.90;99.90;;;;;;4988924;28;20030;-57
2022/07/31 01:40:49;;;;;;;13.17;2.30;;;17.80;99.90;;;;;;4990501;28;20101;-54
2022/07/31 01:43:21;;;;;;;9.70;2.83;;;17.90;99.90;;;;;;4992187;28;20663;-54
2022/07/31 01:45:51;;;;;;;4.35;2.40;;;17.80;99.90;;;;;;4990566;28;20034;-56
2022/07/31 01:48:18;;;;;;;4.55;2.28;;;17.80;99.90;;;;;;4985808;28;20036;-54
2022/07/31 01:50:46;;;;;;;5.38;2.85;;;17.80;99.90;;;;;;4972703;28;20038;-58
2022/07/31 01:53:16;;;;;;;3.85;1.92;;;17.70;99.90;;;;;;4986647;28;20034;-56
2022/07/31 01:55:43;;;;;;;8.70;2.88;;;17.70;99.90;;;;;;4994305;28;20068;-58
2022/07/31 01:58:11;;;;;;;5.20;2.50;;;17.60;99.90;;;;;;4987905;28;20054;-57
2022/07/31 02:00:37;;;;;;;5.60;2.90;;;17.60;99.90;;;;;;4989975;28;20136;-56
2022/07/31 02:03:05;;;;;;;7.72;2.60;;;17.50;99.90;;;;;;4988584;28;20400;-57
2022/07/31 02:05:33;;;;;;;3.90;2.33;;;17.50;99.90;;;;;;4989608;28;20121;-57
2022/07/31 02:07:59;;;;;;;6.82;3.10;;;17.50;99.90;;;;;;4988072;28;20109;-57
2022/07/31 02:10:25;;;;;;;4.68;2.60;;;17.50;99.90;;;;;;4989993;28;20044;-57
2022/07/31 02:12:51;;;;;;;5.22;2.22;;;17.40;99.90;;;;;;4988841;28;20085;-58
2022/07/31 02:15:19;;;;;;;5.40;2.50;;;17.40;99.90;;;;;;4990516;28;20081;-58
2022/07/31 02:17:45;;;;;;;6.70;2.60;;;17.40;99.90;;;;;;4988421;28;20030;-55
2022/07/31 02:20:12;;;;;;;4.47;2.22;;;17.40;99.90;;;;;;4987828;28;20049;-57
2022/07/31 02:22:38;;;;;;;3.50;2.20;;;17.30;99.90;;;;;;4992184;28;20027;-55
2022/07/31 02:25:06;;;;;;;6.82;2.80;;;17.40;99.90;;;;;;4986584;28;20045;-56
2022/07/31 02:27:32;;;;;;;5.82;2.60;;;17.30;99.90;;;;;;4988827;28;20064;-52
2022/07/31 02:30:01;;;;;;;5.90;2.90;;;17.30;99.90;;;;;;4977800;28;20515;-56
2022/07/31 02:32:28;;;;;;;5.25;2.75;;;17.30;99.90;;;;;;4986044;28;20558;-58
2022/07/31 02:34:55;;;;;;;3.90;2.20;;;17.20;99.90;;;;;;4989567;28;20076;-58
2022/07/31 02:37:23;;;;;;;6.15;2.97;;;17.20;99.90;;;;;;4998146;28;20026;-56
2022/07/31 02:39:51;;;;;;;4.93;2.65;;;17.20;99.90;;;;;;4988236;28;20042;-59
2022/07/31 02:42:17;;;;;;;5.22;2.35;;;17.20;99.90;;;;;;4987430;28;20056;-49
2022/07/31 02:44:43;;;;;;;4.18;2.33;;;17.20;99.90;;;;;;4984983;28;20436;-57
2022/07/31 02:47:11;;;;;;;6.95;2.80;;;17.20;99.90;;;;;;4990147;28;20038;-56
2022/07/31 02:49:37;;;;;;;4.95;2.50;;;17.20;99.90;;;;;;4994014;28;20034;-53
2022/07/31 02:52:04;;;;;;;6.75;2.47;;;17.30;99.90;;;;;;4990939;28;20066;-58
2022/07/31 02:54:32;;;;;;;4.60;2.80;;;17.40;99.90;;;;;;4978257;28;20030;-57
2022/07/31 02:56:58;;;;;;;6.18;2.45;;;17.40;99.90;;;;;;4989065;28;20177;-57
2022/07/31 02:59:23;;;;;;;5.22;2.50;;;17.40;99.90;;;;;;4993941;28;20035;-53
2022/07/31 03:01:49;;;;;;;4.78;3.20;;;17.40;99.90;;;;;;5004510;28;20019;-55
2022/07/31 03:04:14;;;;;;;6.53;3.17;;;17.30;99.90;;;;;;4990126;28;20216;-50
2022/07/31 03:06:40;;;;;;;9.00;3.53;;;17.30;99.90;;;;;;4992386;28;20030;-55
2022/07/31 03:09:06;;;;;;;5.70;3.55;;;17.30;99.90;;;;;;4994359;28;20403;-53
2022/07/31 03:11:31;;;;;;;4.82;3.45;;;17.30;99.90;;;;;;5008150;28;20029;-58
2022/07/31 03:14:00;;;;;;;6.30;3.13;;;17.20;99.90;;;;;;4992643;28;20576;-55
2022/07/31 03:16:28;;;;;;;7.97;3.80;;;17.10;99.90;;;;;;4999962;28;20029;-56
2022/07/31 03:18:55;;;;;;;8.88;2.75;;;17.10;99.90;;;;;;4997615;28;20527;-56
2022/07/31 03:21:22;;;;;;;7.43;2.90;;;17.10;99.90;;;;;;4990608;28;20036;-57
2022/07/31 03:23:49;;;;;;;6.20;3.03;;;17.10;99.90;;;;;;4991090;28;20030;-58
2022/07/31 03:26:15;;;;;;;4.65;2.63;;;17.20;99.90;;;;;;4990978;28;20041;-57
2022/07/31 03:28:41;;;;;;;6.15;2.80;;;17.20;99.90;;;;;;4992690;28;20038;-54
2022/07/31 03:31:07;;;;;;;8.57;2.72;;;17.30;99.90;;;;;;5001138;28;20026;-57
2022/07/31 03:33:33;;;;;;;6.53;3.22;;;17.40;99.90;;;;;;4991297;28;20088;-58
2022/07/31 03:35:59;;;;;;;7.10;2.65;;;17.40;99.90;;;;;;5000602;28;20022;-56
2022/07/31 03:38:25;;;;;;;3.45;2.53;;;17.40;99.90;;;;;;4982397;28;20050;-53
2022/07/31 03:40:51;;;;;;;4.78;2.65;;;17.50;99.90;;;;;;4999547;28;20439;-53
2022/07/31 03:43:18;;;;;;;3.70;2.60;;;17.50;99.90;;;;;;4991170;28;20032;-56
2022/07/31 03:45:45;;;;;;;12.60;3.00;;;17.60;99.90;;;;;;4992042;28;20034;-57
2022/07/31 03:48:11;;;;;;;5.03;2.70;;;17.60;99.90;;;;;;4991331;28;20026;-56
2022/07/31 03:50:38;;;;;;;5.05;2.80;;;17.70;99.90;;;;;;4996308;28;20034;-54
2022/07/31 03:53:05;;;;;;;2.67;2.47;;;17.70;99.90;;;;;;4989794;28;20108;-55
2022/07/31 03:55:33;;;;;;;9.90;2.95;;;17.70;99.90;;;;;;4990946;28;20054;-58
2022/07/31 03:57:59;;;;;;;5.10;2.45;;;17.70;99.90;;;;;;4989852;28;20022;-57
2022/07/31 04:00:26;;;;;;;3.80;2.58;;;17.80;99.90;;;;;;4992308;28;20015;-57
2022/07/31 04:02:54;;;;;;;5.57;2.22;;;17.80;99.90;;;;;;4989451;28;20586;-57
2022/07/31 04:05:20;;;;;;;5.40;2.17;;;17.80;99.90;;;;;;4999272;28;20400;-56
2022/07/31 04:07:46;;;;;;;4.82;2.38;;;17.90;99.90;;;;;;4997129;28;20030;-59
2022/07/31 04:10:11;;;;;;;5.57;2.30;;;17.90;99.90;;;;;;4991722;28;20133;-58
2022/07/31 04:12:37;;;;;;;4.30;2.35;;;17.90;99.90;;;;;;4999539;28;20034;-58
2022/07/31 04:15:03;;;;;;;15.35;2.42;;;18.00;99.90;;;;;;4999387;28;20028;-59
2022/07/31 04:17:29;;;;;;;6.88;2.60;;;18.00;99.90;;;;;;4999625;28;20027;-55
2022/07/31 04:19:54;;;;;;;6.07;2.80;;;18.00;99.90;;;;;;4991273;28;20048;-56
2022/07/31 04:22:20;;;;;;;5.10;1.92;;;18.00;99.90;;;;;;4988193;28;20033;-55
2022/07/31 04:24:45;;;;;;;4.07;2.20;;;18.10;99.90;;;;;;4992412;28;20044;-57
2022/07/31 04:27:13;;;;;;;3.72;2.70;;;18.10;99.90;;;;;;4987244;28;20248;-52
2022/07/31 04:29:39;;;;;;;5.97;2.50;;;18.10;99.90;;;;;;4991264;28;20105;-59
2022/07/31 04:32:05;;;;;;;3.55;2.17;;;18.10;99.90;;;;;;4990954;28;20552;-59
2022/07/31 04:34:30;;;;;;;4.47;2.47;;;18.10;99.90;;;;;;4993132;28;20408;-57
2022/07/31 04:36:57;;;;;;;3.67;2.63;;;18.20;99.90;;;;;;4989920;28;20064;-60
2022/07/31 04:39:23;;;;;;;3.85;2.50;;;18.20;99.90;;;;;;4980801;28;20050;-57
2022/07/31 04:41:48;;;;;;;4.40;2.45;;;18.10;99.90;;;;;;4989203;28;20080;-55
2022/07/31 04:44:14;;;;;;;3.92;2.83;;;18.10;99.90;;;;;;4990596;28;20030;-56
2022/07/31 04:46:42;;;;;;;5.10;2.53;;;18.10;99.90;;;;;;4988318;28;20030;-55
2022/07/31 04:49:07;;;;;;;5.32;2.70;;;18.10;99.90;;;;;;4990723;28;20073;-55
2022/07/31 04:51:33;;;;;;;3.85;2.53;;;18.10;99.90;;;;;;4990051;28;20054;-58
2022/07/31 04:53:59;;;;;;;5.22;2.60;;;18.10;99.90;;;;;;4990179;28;20039;-55
2022/07/31 04:56:34;;;;;;;3.17;2.40;;;18.10;99.90;;;;;;4986627;28;20034;-57
2022/07/31 04:59:04;;;;;;;11.55;2.85;;;18.10;99.90;;;;;;4987169;28;20113;-58
2022/07/31 05:01:30;;;;;;;5.25;2.70;;;18.20;99.90;;;;;;4990028;28;20117;-55
2022/07/31 05:03:56;;;;;;;5.05;2.63;;;18.20;99.90;;;;;;4989058;28;20125;-57
2022/07/31 05:06:22;;;;;;;3.95;2.38;;;18.20;99.90;;;;;;4987760;28;20034;-55
2022/07/31 05:08:47;;;;;;;7.18;2.50;;;18.30;99.90;;;;;;4988905;28;20034;-51
2022/07/31 05:11:22;;;;;;;6.82;3.00;;;18.30;99.90;;;;;;4989788;28;20058;-55
2022/07/31 05:13:53;;;;;;;6.72;2.38;;;18.30;99.90;;;;;;4987327;28;20113;-55
2022/07/31 05:16:19;;;;;;;7.10;2.45;;;18.30;99.90;;;;;;5003889;28;20026;-48
2022/07/31 05:18:46;;;;;;;3.67;2.50;;;18.30;99.90;;;;;;4989780;28;20041;-56
2022/07/31 05:21:13;;;;;;;3.83;2.42;;;18.30;99.90;;;;;;4990846;28;20117;-57
2022/07/31 05:23:40;;;;;;;6.40;2.63;;;18.40;99.90;;;;;;4993041;28;20034;-56
2022/07/31 05:26:07;;;;;;;4.25;2.58;;;18.40;99.90;;;;;;4989203;28;20034;-57
2022/07/31 05:28:33;;;;;;;4.75;2.50;;;18.50;99.90;;;;;;4988094;28;20081;-54
2022/07/31 05:30:59;;;;;;;6.30;3.15;;;18.50;99.90;;;;;;4988995;28;20504;-59
2022/07/31 05:33:25;;;;;;;6.95;2.65;;;18.60;99.90;;;;;;4987911;28;20026;-56
2022/07/31 05:35:50;;;;;;;3.53;2.65;;;18.70;99.90;;;;;;4989570;28;20030;-56
2022/07/31 05:38:16;;;;;;;4.45;2.63;;;18.70;99.90;;;;;;4989727;28;20073;-51
2022/07/31 05:40:41;;;;;;;7.65;2.45;;;18.80;99.90;;;;;;4989470;28;20129;-58
2022/07/31 05:43:07;;;;;;;5.32;2.40;;;18.80;99.90;;;;;;4976706;28;20049;-60
2022/07/31 05:45:33;;;;;;;5.68;2.72;;;18.80;99.90;;;;;;4988993;28;20093;-55
2022/07/31 05:47:58;;;;;;;8.40;2.53;;;18.80;99.90;;;;;;4989589;28;20054;-59
2022/07/31 05:50:24;;;;;;;5.05;2.28;;;18.90;99.90;;;;;;4994222;28;20125;-58
2022/07/31 05:52:50;;;;;;;4.75;2.40;;;19.00;99.90;;;;;;4989720;28;20416;-54
2022/07/31 05:55:15;;;;;;;2.92;2.50;;;19.10;99.90;;;;;;4987566;28;20022;-56
2022/07/31 05:57:41;;;;;;;7.55;2.65;;;19.30;99.90;;;;;;4988380;28;20026;-58
2022/07/31 06:00:07;;;;;;;4.38;2.38;;;19.50;99.90;;;;;;4987399;28;20038;-54
2022/07/31 06:02:34;;;;;;;3.58;2.35;;;19.70;99.90;;;;;;4987342;28;20035;-58
2022/07/31 06:04:59;;;;;;;6.22;2.63;;;19.90;99.90;;;;;;4989419;28;20026;-57
2022/07/31 06:07:25;;;;;;;3.90;2.20;;;20.10;99.90;;;;;;4988721;28;20685;-57
2022/07/31 06:09:51;;;;;;;5.88;1.92;;;20.30;99.20;;;;;;4988667;28;20031;-59
2022/07/31 06:12:18;;;;;;;3.67;2.38;;;20.60;98.40;;;;;;4988318;28;20026;-48
2022/07/31 06:14:44;;;;;;;4.30;2.33;;;20.80;98.20;;;;;;4994024;28;20419;-59
2022/07/31 06:17:09;;;;;;;4.53;2.60;;;20.90;97.70;;;;;;4997319;28;20114;-58
2022/07/31 06:19:35;;;;;;;5.47;2.25;;;21.00;98.10;;;;;;4992226;28;20030;-58
2022/07/31 06:22:01;;;;;;;3.40;2.33;;;21.20;98.60;;;;;;4988271;28;20045;-56
2022/07/31 06:24:26;;;;;;;5.65;2.17;;;21.70;98.40;;;;;;4986570;28;20085;-59
2022/07/31 06:26:57;;;;;;;5.93;2.47;;;21.90;97.70;;;;;;4993425;28;20034;-58
2022/07/31 06:29:22;;;;;;;4.38;2.03;;;22.60;97.20;;;;;;4995366;28;20030;-58
2022/07/31 06:31:48;;;;;;;2.90;2.10;;;22.90;96.70;;;;;;5000109;28;20034;-55
2022/07/31 06:34:14;;;;;;;8.43;2.42;;;23.10;96.20;;;;;;4996260;28;20493;-58
2022/07/31 06:36:39;;;;;;;5.22;1.92;;;23.10;95.80;;;;;;5005514;28;20022;-58
2022/07/31 06:39:05;;;;;;;5.10;2.60;;;23.30;95.80;;;;;;4993956;28;20452;-57
2022/07/31 06:41:43;;;;;;;3.67;2.28;;;23.50;94.60;;;;;;4993908;28;20451;-58
2022/07/31 06:44:09;;;;;;;6.10;2.92;;;23.90;92.20;;;;;;4992558;28;20162;-57
2022/07/31 06:46:35;;;;;;;3.28;1.90;;;24.10;91.80;;;;;;4991759;28;20034;-57
2022/07/31 06:49:00;;;;;;;6.28;2.40;;;24.20;91.80;;;;;;4990787;28;20392;-59
2022/07/31 06:51:26;;;;;;;5.20;2.25;;;24.20;92.00;;;;;;4997008;28;20106;-58
2022/07/31 06:53:51;;;;;;;4.05;2.05;;;24.30;92.10;;;;;;4992745;28;20041;-59
2022/07/31 06:56:17;;;;;;;4.50;2.20;;;24.30;92.30;;;;;;4990748;28;20030;-55
2022/07/31 06:58:43;;;;;;;3.38;2.08;;;24.30;91.70;;;;;;4989105;28;20037;-58
2022/07/31 07:01:08;;;;;;;3.33;2.72;;;24.20;92.20;;;;;;4992033;28;20053;-59
2022/07/31 07:03:34;;;;;;;5.35;2.22;;;24.10;92.50;;;;;;4990819;28;20053;-59
2022/07/31 07:06:00;;;;;;;6.65;2.55;;;23.90;92.20;;;;;;4990848;28;20038;-57
2022/07/31 07:08:25;;;;;;;5.85;2.40;;;23.80;92.20;;;;;;4990631;28;20049;-56
2022/07/31 07:10:51;;;;;;;5.80;2.20;;;24.10;92.70;;;;;;4992734;28;20031;-60
2022/07/31 07:13:16;;;;;;;5.05;2.45;;;23.90;92.20;;;;;;4991860;28;20540;-57
2022/07/31 07:15:42;;;;;;;4.60;2.10;;;23.80;92.70;;;;;;4990811;28;20385;-57
2022/07/31 07:18:07;;;;;;;5.88;2.17;;;23.50;92.70;;;;;;4992869;28;20037;-58
2022/07/31 07:20:33;;;;;;;6.75;2.40;;;23.50;92.70;;;;;;4991827;28;20044;-59
2022/07/31 07:22:59;;;;;;;7.05;2.47;;;23.50;92.90;;;;;;4991574;28;20039;-56
2022/07/31 07:25:24;;;;;;;6.90;2.50;;;23.30;92.40;;;;;;4990752;28;20037;-59
2022/07/31 07:27:50;;;;;;;12.63;2.40;;;23.10;93.00;;;;;;4989145;28;20165;-61
2022/07/31 07:30:15;;;;;;;5.40;2.20;;;23.00;93.30;;;;;;5003008;28;20030;-58
2022/07/31 07:32:41;;;;;;;6.55;2.20;;;22.90;93.50;;;;;;4991350;28;20539;-56
2022/07/31 07:35:08;;;;;;;7.85;3.20;;;22.70;94.00;;;;;;4991523;28;20092;-57
2022/07/31 07:37:33;;;;;;;5.68;2.42;;;22.50;94.40;;;;;;4992711;28;20030;-59
2022/07/31 07:39:59;;;;;;;5.97;2.45;;;22.40;94.40;;;;;;4992821;28;20396;-59
2022/07/31 07:42:24;;;;;;;7.95;2.38;;;22.30;95.10;;;;;;4996784;28;20034;-59
2022/07/31 07:44:50;;;;;;;9.30;2.50;;;22.20;95.10;;;;;;5000591;28;20032;-59
2022/07/31 07:47:16;;;;;;;3.40;2.28;;;22.10;95.40;;;;;;4990912;28;20019;-59
2022/07/31 07:49:41;;;;;;;6.68;2.03;;;22.00;95.30;;;;;;4995722;28;20030;-60
2022/07/31 07:52:07;;;;;;;6.30;2.33;;;22.00;96.00;;;;;;4997170;28;20026;-57
2022/07/31 07:54:33;;;;;;;8.70;2.08;;;22.00;95.90;;;;;;4985741;28;20054;-54
2022/07/31 07:56:58;;;;;;;8.73;2.30;;;22.10;95.70;;;;;;4990731;28;20022;-57
2022/07/31 07:59:24;;;;;;;6.10;2.00;;;22.20;96.40;;;;;;4990349;28;20034;-60
2022/07/31 08:01:49;;;;;;;5.28;2.40;;;22.20;96.50;;;;;;4998310;28;20040;-59
2022/07/31 08:04:15;;;;;;;7.55;2.38;;;22.20;95.90;;;;;;4990208;28;20361;-58
2022/07/31 08:06:41;;;;;;;3.80;2.00;;;22.20;95.70;;;;;;4989480;28;20532;-59
2022/07/31 08:09:07;;;;;;;9.63;2.42;;;22.20;95.60;;;;;;4991403;28;20030;-57
2022/07/31 08:11:33;;;;;;;4.55;1.98;;;22.30;95.90;;;;;;5007044;28;20102;-59
2022/07/31 08:13:58;;;;;;;6.68;2.35;;;22.40;95.90;;;;;;4996555;28;20427;-58
2022/07/31 08:16:24;;;;;;;6.82;2.30;;;22.40;95.60;;;;;;4995316;28;20480;-56
2022/07/31 08:18:50;;;;;;;4.60;2.10;;;22.40;95.40;;;;;;4989796;28;20034;-57
2022/07/31 08:21:16;;;;;;;6.45;2.10;;;22.50;95.70;;;;;;4993341;28;20034;-57
2022/07/31 08:23:42;;;;;;;7.00;2.30;;;22.50;95.40;;;;;;4991268;28;20030;-56
2022/07/31 08:26:07;;;;;;;11.30;2.38;;;22.50;95.50;;;;;;4993033;28;20038;-55
2022/07/31 08:28:34;;;;;;;6.20;1.92;;;22.70;95.70;;;;;;4993761;28;20030;-56
2022/07/31 08:31:00;;;;;;;8.27;2.17;;;23.10;95.80;;;;;;4991769;28;20404;-57
2022/07/31 08:33:26;;;;;;;13.30;2.28;;;23.50;95.00;;;;;;4998245;28;20029;-57
2022/07/31 08:35:51;;;;;;;7.75;2.08;;;23.70;94.90;;;;;;4996855;28;20034;-60
2022/07/31 08:38:18;;;;;;;5.13;1.95;;;24.00;93.70;;;;;;4989784;28;20034;-57
2022/07/31 08:40:45;;;;;;;6.30;2.08;;;24.30;93.20;;;;;;4998067;28;20035;-60
2022/07/31 08:43:11;;;;;;;7.88;2.13;;;24.10;93.70;;;;;;4990143;28;20049;-57
2022/07/31 08:45:40;;;;;;;5.82;2.25;;;24.10;93.80;;;;;;4984982;28;20026;-58
2022/07/31 08:48:08;;;;;;;5.18;2.08;;;23.90;93.10;;;;;;4987795;28;20078;-57
2022/07/31 08:50:37;;;;;;;4.75;2.25;;;23.90;93.40;;;;;;4993114;28;20515;-60
2022/07/31 08:53:03;;;;;;;6.03;2.03;;;24.10;93.00;;;;;;4988693;28;20108;-60
2022/07/31 08:55:31;;;;;;;2.67;1.88;;;24.10;92.50;;;;;;4990100;28;20026;-57
2022/07/31 08:57:57;;;;;;;3.78;1.92;;;24.40;92.10;;;;;;4994024;28;20033;-60
2022/07/31 09:00:23;;;;;;;5.68;1.80;;;24.50;91.80;;;;;;4994206;28;20704;-59
2022/07/31 09:02:49;;;;;;;3.30;1.88;;;25.00;91.50;;;;;;4974459;28;20560;-59
2022/07/31 09:05:15;;;;;;;10.00;2.25;;;25.30;90.80;;;;;;4988044;28;20173;-59
2022/07/31 09:07:42;;;;;;;6.22;2.08;;;25.80;90.50;;;;;;4986492;28;20085;-59
2022/07/31 09:10:25;;;;;;;5.75;1.90;;;26.30;90.20;;;;;;4987167;28;20038;-61
2022/07/31 09:12:53;;;;;;;7.03;1.90;;;26.80;86.70;;;;;;4989731;28;20038;-59
2022/07/31 09:15:27;;;;;;;3.67;1.90;;;27.30;86.40;;;;;;4988352;28;20437;-57
2022/07/31 09:17:54;;;;;;;4.57;1.98;;;27.80;83.40;;;;;;4994965;28;20109;-55
2022/07/31 09:20:28;;;;;;;6.78;2.67;;;27.90;82.80;;;;;;4987775;28;20125;-55
2022/07/31 09:23:05;;;;;;;5.93;2.42;;;27.90;82.20;;;;;;4988011;28;20038;-57
2022/07/31 09:25:31;;;;;;;4.30;2.35;;;27.90;80.30;;;;;;4989269;28;20113;-59
2022/07/31 09:28:05;;;;;;;5.85;2.38;;;27.80;80.40;;;;;;4996506;28;20552;-57
2022/07/31 09:30:31;;;;;;;5.68;1.70;;;28.00;80.10;;;;;;4987175;28;20683;-60
2022/07/31 09:33:17;;;;;;;6.03;2.17;;;27.80;80.60;;;;;;4988553;28;20488;-59
2022/07/31 09:35:48;;;;;;;3.25;2.08;;;27.20;79.80;;;;;;4984834;28;20034;-59
2022/07/31 09:38:15;;;;;;;4.70;2.03;;;27.10;81.50;;;;;;4995884;28;20439;-58
2022/07/31 09:40:44;;;;;;;4.32;1.55;;;26.80;81.20;;;;;;4988984;28;20022;-58
2022/07/31 09:43:18;;;;;;;3.97;1.58;;;26.50;83.80;;;;;;4986566;28;20033;-56
2022/07/31 09:45:56;;;;;;;3.33;1.98;;;26.40;86.80;;;;;;4988621;28;20145;-60
2022/07/31 09:48:22;;;;;;;2.90;1.33;;;26.30;88.80;;;;;;4984891;28;20060;-56
2022/07/31 09:50:52;;;;;;;4.38;1.40;;;26.20;84.90;;;;;;4988907;28;20037;-60
2022/07/31 09:53:18;;;;;;;4.03;1.13;;;26.10;88.50;;;;;;4988075;28;20515;-60
2022/07/31 09:55:56;;;;;;;2.60;1.27;;;26.00;86.00;;;;;;4987465;28;20058;-60
2022/07/31 09:58:23;;;;;;;3.08;1.65;;;26.50;83.90;;;;;;4985529;28;20035;-55
2022/07/31 10:00:51;;;;;;;2.45;1.10;;;26.40;85.20;;;;;;4987670;28;20113;-59
2022/07/31 10:03:18;;;;;;;3.22;1.20;;;26.80;84.00;;;;;;4972101;28;20057;-61
2022/07/31 10:05:45;;;;;;;1.23;1.08;;;27.10;83.90;;;;;;4986041;28;20037;-60
2022/07/31 10:08:13;;;;;;;1.83;1.00;;;27.00;82.50;;;;;;4988892;28;20039;-56
2022/07/31 10:10:42;;;;;;;2.88;1.00;;;27.40;81.30;;;;;;4987073;28;20026;-59
2022/07/31 10:13:14;;;;;;;2.15;1.38;;;28.20;79.90;;;;;;4989203;28;20038;-61
2022/07/31 10:15:44;;;;;;;1.85;1.10;;;28.20;77.30;;;;;;4987215;28;20022;-56
2022/07/31 10:18:10;;;;;;;2.88;1.10;;;28.70;78.80;;;;;;4986659;28;20046;-58
2022/07/31 10:20:38;;;;;;;2.88;1.30;;;29.30;76.60;;;;;;4987164;28;20552;-59
2022/07/31 10:23:09;;;;;;;1.63;1.25;;;28.90;75.50;;;;;;4988258;28;20034;-59
2022/07/31 10:25:42;;;;;;;2.47;1.20;;;28.60;75.90;;;;;;4988060;28;20121;-59
2022/07/31 10:28:08;;;;;;;3.78;1.35;;;29.00;76.60;;;;;;4985853;28;20037;-60
2022/07/31 10:30:35;;;;;;;2.38;1.27;;;29.20;76.40;;;;;;4988926;28;20026;-59
2022/07/31 10:33:05;;;;;;;2.22;1.38;;;29.10;74.60;;;;;;4991919;28;20518;-61
2022/07/31 10:35:33;;;;;;;2.70;1.35;;;29.00;75.80;;;;;;4987557;28;20050;-55
2022/07/31 10:38:17;;;;;;;3.42;1.30;;;29.40;75.80;;;;;;4987644;28;20031;-58
2022/07/31 10:40:52;;;;;;;1.98;1.20;;;29.80;75.90;;;;;;4991258;28;20488;-60
2022/07/31 10:43:25;;;;;;;3.53;1.70;;;29.50;73.00;;;;;;4985314;28;20451;-58
2022/07/31 10:45:52;;;;;;;;;;;29.10;73.70;;;;;;4987300;28;20101;-60
2022/07/31 10:48:18;;;;;;;2.30;1.23;;;29.00;74.70;;;;;;4990514;28;19906;-57
2022/07/31 10:50:45;;;;;;;2.78;1.30;;;29.50;75.20;;;;;;4986962;28;20387;-60
2022/07/31 10:53:16;;;;;;;1.60;1.00;;;29.60;73.50;;;;;;4988581;28;20030;-60
2022/07/31 10:55:43;;;;;;;3.20;1.40;;;29.40;72.50;;;;;;4987710;28;20019;-59
2022/07/31 10:58:11;;;;;;;2.30;1.08;;;29.30;72.40;;;;;;4989532;28;20022;-57
2022/07/31 11:00:37;;;;;;;2.50;0.90;;;29.80;74.80;;;;;;4987511;28;20038;-57
2022/07/31 11:03:21;;;;;;;2.10;1.08;;;29.80;73.70;;;;;;4968898;28;20132;-58
2022/07/31 11:05:58;;;;;;;2.10;1.10;;;29.90;72.30;;;;;;4984511;28;20076;-59
2022/07/31 11:08:24;;;;;;;4.28;1.10;;;29.50;72.40;;;;;;4986144;28;20046;-57
2022/07/31 11:10:59;;;;;;;1.42;0.82;;;29.50;75.00;;;;;;4988968;28;20773;-59
2022/07/31 11:13:26;;;;;;;1.73;0.85;;;29.40;72.60;;;;;;5000026;28;20030;-58
2022/07/31 11:16:03;;;;;;;0.85;0.80;;;29.10;72.90;;;;;;4993913;28;20018;-60
2022/07/31 11:18:29;;;;;;;4.75;1.30;;;29.10;73.40;;;;;;4991332;28;20146;-58
2022/07/31 11:20:59;;;;;;;4.18;1.00;;;28.80;74.70;;;;;;4989451;28;20516;-58
2022/07/31 11:23:29;;;;;;;2.35;1.20;;;28.80;74.30;;;;;;4991219;28;20146;-57
2022/07/31 11:25:59;;;;;;;3.40;1.10;;;28.80;74.60;;;;;;4992042;28;20081;-58
2022/07/31 11:28:25;;;;;;;1.40;1.20;;;29.30;73.30;;;;;;5001491;28;20455;-58
2022/07/31 11:30:55;;;;;;;2.95;0.90;;;29.40;73.30;;;;;;4999420;28;20033;-59
2022/07/31 11:33:39;;;;;;;2.50;1.10;;;29.70;72.60;;;;;;4992740;28;20030;-58
2022/07/31 11:36:15;;;;;;;2.42;0.90;;;29.70;71.20;;;;;;4990557;28;20058;-57
2022/07/31 11:38:43;;;;;;;1.80;0.82;;;29.50;70.20;;;;;;4982733;28;20113;-60
2022/07/31 11:41:09;;;;;;;2.20;0.95;;;29.50;71.60;;;;;;4988113;28;20026;-60
2022/07/31 11:43:38;;;;;;;5.75;0.90;;;29.40;72.00;;;;;;4990897;28;20034;-59
2022/07/31 11:46:05;;;;;;;1.63;0.95;;;29.60;69.80;;;;;;4997704;28;20039;-57
2022/07/31 11:48:31;;;;;;;2.08;0.82;;;29.10;69.50;;;;;;4991691;28;20022;-56
2022/07/31 11:50:59;;;;;;;1.30;0.85;;;29.10;70.10;;;;;;4998145;28;20030;-57
2022/07/31 11:53:25;;;;;;;2.42;0.88;;;29.10;69.50;;;;;;4989708;28;20461;-58
2022/07/31 11:55:57;;;;;;;3.30;1.00;;;29.10;70.50;;;;;;4984147;28;20081;-57
2022/07/31 11:58:27;;;;;;;2.50;1.00;;;29.10;70.20;;;;;;4989133;28;20035;-51
2022/07/31 12:01:01;;;;;;;2.05;1.40;;;29.10;70.40;;;;;;4985886;28;20050;-58
2022/07/31 12:03:35;;;;;;;0.82;0.75;;;29.00;69.80;;;;;;4973502;28;20042;-58
2022/07/31 12:06:02;;;;;;;1.75;0.80;;;29.20;68.80;;;;;;4990092;28;20396;-55
2022/07/31 12:08:28;;;;;;;1.58;0.90;;;29.00;69.00;;;;;;4994828;28;20034;-58
2022/07/31 12:10:56;;;;;;;1.38;0.90;;;29.10;67.40;;;;;;5000682;28;20464;-55
2022/07/31 12:13:23;;;;;;;1.40;0.75;;;29.20;67.40;;;;;;4990304;28;20238;-54
2022/07/31 12:16:00;;;;;;;2.00;1.23;;;29.30;68.00;;;;;;4997004;28;20492;-57
2022/07/31 12:18:27;;;;;;;1.48;1.10;;;29.50;68.60;;;;;;4988987;28;20026;-58
2022/07/31 12:20:57;;;;;;;2.00;1.10;;;29.70;68.30;;;;;;4977954;28;20070;-58
2022/07/31 12:23:23;;;;;;;2.33;1.20;;;29.70;68.10;;;;;;4986777;28;20022;-56
2022/07/31 12:25:50;;;;;;;2.10;1.10;;;29.90;68.20;;;;;;4983902;28;20464;-56
2022/07/31 12:28:16;;;;;;;4.25;1.10;;;29.50;68.50;;;;;;4983226;28;20531;-55
2022/07/31 12:30:43;;;;;;;2.80;1.20;;;29.50;68.60;;;;;;4985308;28;20042;-56
2022/07/31 12:33:10;;;;;;;1.40;1.08;;;29.80;68.50;;;;;;4989931;28;20019;-56
2022/07/31 12:35:36;;;;;;;2.97;1.13;;;29.90;67.90;;;;;;4986931;28;20535;-56
2022/07/31 12:38:01;;;;;;;2.22;1.02;;;29.40;67.60;;;;;;4989937;28;20037;-58
2022/07/31 12:40:28;;;;;;;3.50;1.08;;;29.10;67.70;;;;;;4995627;28;20488;-58
2022/07/31 12:42:54;;;;;;;2.75;1.45;;;29.00;68.30;;;;;;4992145;28;20030;-58
2022/07/31 12:45:37;;;;;;;3.75;1.33;;;28.60;69.30;;;;;;4990458;28;20562;-54
2022/07/31 12:48:04;;;;;;;1.85;0.80;;;28.60;69.30;;;;;;4987757;28;20406;-57
2022/07/31 12:50:31;;;;;;;2.13;1.30;;;28.90;70.20;;;;;;4985919;28;20713;-57